sensor_id;sensor_type;location;lat;lon;timestamp;P1;durP1;ratioP1;P2;durP2;ratioP2
20657;SDS011;10488;50.846;4.078;2022-07-03T00:01:46;30.52;;;29.02;;
20657;SDS011;10488;50.846;4.078;2022-07-03T00:04:12;29.58;;;28.27;;
20657;SDS011;10488;50.846;4.078;2022-07-03T00:06:38;29.60;;;28.10;;
20657;SDS011;10488;50.846;4.078;2022-07-03T00:09:04;29.10;;;27.70;;
20657;SDS011;10488;50.846;4.078;2022-07-03T00:11:31;30.73;;;29.23;;
20657;SDS011;10488;50.846;4.078;2022-07-03T00:13:58;29.33;;;27.90;;
20657;SDS011;10488;50.846;4.078;2022-07-03T00:16:24;31.08;;;29.58;;
20657;SDS011;10488;50.846;4.078;2022-07-03T00:18:49;31.52;;;29.48;;
20657;SDS011;10488;50.846;4.078;2022-07-03T00:21:17;30.48;;;29.17;;
20657;SDS011;10488;50.846;4.078;2022-07-03T00:26:54;30.63;;;28.58;;
20657;SDS011;10488;50.846;4.078;2022-07-03T00:29:23;31.95;;;30.45;;
20657;SDS011;10488;50.846;4.078;2022-07-03T00:31:54;31.75;;;29.35;;
20657;SDS011;10488;50.846;4.078;2022-07-03T00:34:20;33.38;;;31.20;;
20657;SDS011;10488;50.846;4.078;2022-07-03T00:36:50;34.60;;;32.85;;
20657;SDS011;10488;50.846;4.078;2022-07-03T00:39:17;31.27;;;29.77;;
20657;SDS011;10488;50.846;4.078;2022-07-03T00:41:44;28.98;;;27.67;;
20657;SDS011;10488;50.846;4.078;2022-07-03T00:44:12;33.60;;;32.10;;
20657;SDS011;10488;50.846;4.078;2022-07-03T00:46:38;31.17;;;29.40;;
20657;SDS011;10488;50.846;4.078;2022-07-03T00:49:06;28.48;;;27.13;;
20657;SDS011;10488;50.846;4.078;2022-07-03T00:51:34;28.80;;;27.50;;
20657;SDS011;10488;50.846;4.078;2022-07-03T00:54:02;30.85;;;29.35;;
20657;SDS011;10488;50.846;4.078;2022-07-03T00:56:29;31.17;;;29.70;;
20657;SDS011;10488;50.846;4.078;2022-07-03T00:58:59;33.95;;;32.35;;
20657;SDS011;10488;50.846;4.078;2022-07-03T01:01:26;32.38;;;30.98;;
20657;SDS011;10488;50.846;4.078;2022-07-03T01:06:51;39.83;;;38.13;;
20657;SDS011;10488;50.846;4.078;2022-07-03T01:12:23;42.90;;;40.60;;
20657;SDS011;10488;50.846;4.078;2022-07-03T01:15:05;40.90;;;39.03;;
20657;SDS011;10488;50.846;4.078;2022-07-03T01:18:23;54.85;;;52.45;;
20657;SDS011;10488;50.846;4.078;2022-07-03T01:20:53;65.25;;;62.15;;
20657;SDS011;10488;50.846;4.078;2022-07-03T01:23:34;66.18;;;63.28;;
20657;SDS011;10488;50.846;4.078;2022-07-03T01:26:17;64.88;;;61.95;;
20657;SDS011;10488;50.846;4.078;2022-07-03T01:28:44;58.17;;;55.58;;
20657;SDS011;10488;50.846;4.078;2022-07-03T01:31:12;55.83;;;53.13;;
20657;SDS011;10488;50.846;4.078;2022-07-03T01:33:43;60.80;;;58.10;;
20657;SDS011;10488;50.846;4.078;2022-07-03T01:36:12;52.60;;;50.30;;
20657;SDS011;10488;50.846;4.078;2022-07-03T01:38:40;53.78;;;51.38;;
20657;SDS011;10488;50.846;4.078;2022-07-03T01:41:07;50.00;;;47.63;;
20657;SDS011;10488;50.846;4.078;2022-07-03T01:43:36;49.08;;;46.78;;
20657;SDS011;10488;50.846;4.078;2022-07-03T01:46:09;49.80;;;47.55;;
20657;SDS011;10488;50.846;4.078;2022-07-03T01:48:37;52.28;;;49.85;;
20657;SDS011;10488;50.846;4.078;2022-07-03T01:51:07;55.70;;;53.40;;
20657;SDS011;10488;50.846;4.078;2022-07-03T01:53:37;59.15;;;56.65;;
20657;SDS011;10488;50.846;4.078;2022-07-03T01:56:15;62.72;;;59.85;;
20657;SDS011;10488;50.846;4.078;2022-07-03T01:58:45;66.13;;;63.05;;
20657;SDS011;10488;50.846;4.078;2022-07-03T02:01:21;60.22;;;57.63;;
20657;SDS011;10488;50.846;4.078;2022-07-03T02:03:51;59.28;;;56.72;;
20657;SDS011;10488;50.846;4.078;2022-07-03T02:09:17;52.33;;;50.10;;
20657;SDS011;10488;50.846;4.078;2022-07-03T02:11:47;51.25;;;49.15;;
20657;SDS011;10488;50.846;4.078;2022-07-03T02:14:17;53.53;;;51.22;;
20657;SDS011;10488;50.846;4.078;2022-07-03T02:19:50;76.82;;;73.53;;
20657;SDS011;10488;50.846;4.078;2022-07-03T02:22:29;210.60;;;201.45;;
20657;SDS011;10488;50.846;4.078;2022-07-03T02:25:02;179.95;;;172.23;;
20657;SDS011;10488;50.846;4.078;2022-07-03T02:30:09;199.27;;;190.68;;
20657;SDS011;10488;50.846;4.078;2022-07-03T02:32:38;225.48;;;215.50;;
20657;SDS011;10488;50.846;4.078;2022-07-03T02:35:14;214.20;;;204.98;;
20657;SDS011;10488;50.846;4.078;2022-07-03T02:40:43;215.02;;;205.27;;
20657;SDS011;10488;50.846;4.078;2022-07-03T02:43:41;215.18;;;205.68;;
20657;SDS011;10488;50.846;4.078;2022-07-03T02:46:20;222.43;;;212.75;;
20657;SDS011;10488;50.846;4.078;2022-07-03T02:52:08;246.50;;;235.77;;
20657;SDS011;10488;50.846;4.078;2022-07-03T02:54:43;247.07;;;235.73;;
20657;SDS011;10488;50.846;4.078;2022-07-03T02:57:11;274.00;;;261.98;;
20657;SDS011;10488;50.846;4.078;2022-07-03T02:59:53;269.85;;;258.08;;
20657;SDS011;10488;50.846;4.078;2022-07-03T03:02:35;246.15;;;235.23;;
20657;SDS011;10488;50.846;4.078;2022-07-03T03:05:22;199.68;;;191.13;;
20657;SDS011;10488;50.846;4.078;2022-07-03T03:08:02;195.35;;;186.93;;
20657;SDS011;10488;50.846;4.078;2022-07-03T03:10:36;183.95;;;175.90;;
20657;SDS011;10488;50.846;4.078;2022-07-03T03:13:04;156.25;;;149.27;;
20657;SDS011;10488;50.846;4.078;2022-07-03T03:15:32;186.80;;;178.75;;
20657;SDS011;10488;50.846;4.078;2022-07-03T03:18:00;169.48;;;162.13;;
20657;SDS011;10488;50.846;4.078;2022-07-03T03:20:31;174.68;;;167.20;;
20657;SDS011;10488;50.846;4.078;2022-07-03T03:23:08;192.57;;;184.02;;
20657;SDS011;10488;50.846;4.078;2022-07-03T03:25:52;172.63;;;165.27;;
20657;SDS011;10488;50.846;4.078;2022-07-03T03:28:19;181.73;;;173.90;;
20657;SDS011;10488;50.846;4.078;2022-07-03T03:30:45;183.63;;;175.68;;
20657;SDS011;10488;50.846;4.078;2022-07-03T03:33:10;160.18;;;153.05;;
20657;SDS011;10488;50.846;4.078;2022-07-03T03:35:38;191.90;;;183.52;;
20657;SDS011;10488;50.846;4.078;2022-07-03T03:38:04;194.43;;;186.00;;
20657;SDS011;10488;50.846;4.078;2022-07-03T03:40:31;163.98;;;156.68;;
20657;SDS011;10488;50.846;4.078;2022-07-03T03:42:57;134.77;;;129.05;;
20657;SDS011;10488;50.846;4.078;2022-07-03T03:45:23;142.65;;;136.50;;
20657;SDS011;10488;50.846;4.078;2022-07-03T03:47:49;138.32;;;132.35;;
20657;SDS011;10488;50.846;4.078;2022-07-03T03:50:15;133.75;;;128.00;;
20657;SDS011;10488;50.846;4.078;2022-07-03T03:52:41;130.52;;;124.82;;
20657;SDS011;10488;50.846;4.078;2022-07-03T03:55:07;135.00;;;129.20;;
20657;SDS011;10488;50.846;4.078;2022-07-03T03:57:36;137.52;;;131.65;;
20657;SDS011;10488;50.846;4.078;2022-07-03T04:00:03;155.30;;;148.48;;
20657;SDS011;10488;50.846;4.078;2022-07-03T04:02:30;164.23;;;157.15;;
20657;SDS011;10488;50.846;4.078;2022-07-03T04:04:55;175.38;;;167.65;;
20657;SDS011;10488;50.846;4.078;2022-07-03T04:07:21;169.98;;;162.50;;
20657;SDS011;10488;50.846;4.078;2022-07-03T04:09:47;176.50;;;168.65;;
20657;SDS011;10488;50.846;4.078;2022-07-03T04:12:12;191.93;;;183.48;;
20657;SDS011;10488;50.846;4.078;2022-07-03T04:14:38;191.38;;;182.82;;
20657;SDS011;10488;50.846;4.078;2022-07-03T04:17:04;195.65;;;187.05;;
20657;SDS011;10488;50.846;4.078;2022-07-03T04:19:30;167.50;;;160.27;;
20657;SDS011;10488;50.846;4.078;2022-07-03T04:21:55;196.27;;;187.68;;
20657;SDS011;10488;50.846;4.078;2022-07-03T04:24:21;188.27;;;180.10;;
20657;SDS011;10488;50.846;4.078;2022-07-03T04:26:47;200.68;;;191.65;;
20657;SDS011;10488;50.846;4.078;2022-07-03T04:29:13;184.75;;;176.50;;
20657;SDS011;10488;50.846;4.078;2022-07-03T04:31:39;194.25;;;185.82;;
20657;SDS011;10488;50.846;4.078;2022-07-03T04:34:04;217.10;;;207.60;;
20657;SDS011;10488;50.846;4.078;2022-07-03T04:36:30;215.60;;;206.02;;
20657;SDS011;10488;50.846;4.078;2022-07-03T04:38:55;209.43;;;200.32;;
20657;SDS011;10488;50.846;4.078;2022-07-03T04:41:21;204.63;;;195.45;;
20657;SDS011;10488;50.846;4.078;2022-07-03T04:43:47;207.75;;;198.65;;
20657;SDS011;10488;50.846;4.078;2022-07-03T04:46:12;209.98;;;200.85;;
20657;SDS011;10488;50.846;4.078;2022-07-03T04:48:38;215.43;;;206.02;;
20657;SDS011;10488;50.846;4.078;2022-07-03T04:51:04;201.77;;;192.88;;
20657;SDS011;10488;50.846;4.078;2022-07-03T04:53:30;215.20;;;205.82;;
20657;SDS011;10488;50.846;4.078;2022-07-03T04:55:55;211.10;;;201.95;;
20657;SDS011;10488;50.846;4.078;2022-07-03T04:58:21;209.88;;;200.48;;
20657;SDS011;10488;50.846;4.078;2022-07-03T05:00:47;222.38;;;212.57;;
20657;SDS011;10488;50.846;4.078;2022-07-03T05:03:13;210.52;;;201.32;;
20657;SDS011;10488;50.846;4.078;2022-07-03T05:05:38;197.52;;;188.48;;
20657;SDS011;10488;50.846;4.078;2022-07-03T05:08:04;198.45;;;189.63;;
20657;SDS011;10488;50.846;4.078;2022-07-03T05:10:30;205.27;;;196.20;;
20657;SDS011;10488;50.846;4.078;2022-07-03T05:12:56;211.85;;;202.35;;
20657;SDS011;10488;50.846;4.078;2022-07-03T05:15:22;190.32;;;181.75;;
20657;SDS011;10488;50.846;4.078;2022-07-03T05:17:48;196.60;;;187.68;;
20657;SDS011;10488;50.846;4.078;2022-07-03T05:20:14;194.20;;;185.38;;
20657;SDS011;10488;50.846;4.078;2022-07-03T05:22:49;217.93;;;208.15;;
20657;SDS011;10488;50.846;4.078;2022-07-03T05:25:15;202.93;;;193.93;;
20657;SDS011;10488;50.846;4.078;2022-07-03T05:27:41;189.35;;;180.80;;
20657;SDS011;10488;50.846;4.078;2022-07-03T05:30:06;192.57;;;183.80;;
20657;SDS011;10488;50.846;4.078;2022-07-03T05:32:33;208.48;;;199.20;;
20657;SDS011;10488;50.846;4.078;2022-07-03T05:34:58;203.07;;;194.10;;
20657;SDS011;10488;50.846;4.078;2022-07-03T05:37:24;219.63;;;209.80;;
20657;SDS011;10488;50.846;4.078;2022-07-03T05:39:50;257.45;;;246.13;;
20657;SDS011;10488;50.846;4.078;2022-07-03T05:42:16;252.50;;;241.18;;
20657;SDS011;10488;50.846;4.078;2022-07-03T05:44:41;225.70;;;215.85;;
20657;SDS011;10488;50.846;4.078;2022-07-03T05:47:07;1071.63;;;568.50;;
20657;SDS011;10488;50.846;4.078;2022-07-03T05:49:32;1999.90;;;999.90;;
20657;SDS011;10488;50.846;4.078;2022-07-03T05:51:58;1999.90;;;999.90;;
20657;SDS011;10488;50.846;4.078;2022-07-03T05:54:24;1999.90;;;999.90;;
20657;SDS011;10488;50.846;4.078;2022-07-03T05:56:49;188.63;;;180.40;;
20657;SDS011;10488;50.846;4.078;2022-07-03T05:59:15;142.25;;;136.15;;
20657;SDS011;10488;50.846;4.078;2022-07-03T06:01:41;163.93;;;156.82;;
20657;SDS011;10488;50.846;4.078;2022-07-03T06:04:06;129.35;;;123.63;;
20657;SDS011;10488;50.846;4.078;2022-07-03T06:06:32;149.63;;;143.00;;
20657;SDS011;10488;50.846;4.078;2022-07-03T06:08:58;132.70;;;126.85;;
20657;SDS011;10488;50.846;4.078;2022-07-03T06:11:23;134.75;;;128.90;;
20657;SDS011;10488;50.846;4.078;2022-07-03T06:13:49;614.80;;;359.77;;
20657;SDS011;10488;50.846;4.078;2022-07-03T06:16:15;143.02;;;136.77;;
20657;SDS011;10488;50.846;4.078;2022-07-03T06:18:40;115.10;;;110.15;;
20657;SDS011;10488;50.846;4.078;2022-07-03T06:21:06;117.45;;;112.15;;
20657;SDS011;10488;50.846;4.078;2022-07-03T06:23:31;108.43;;;103.65;;
20657;SDS011;10488;50.846;4.078;2022-07-03T06:25:57;159.38;;;152.45;;
20657;SDS011;10488;50.846;4.078;2022-07-03T06:28:23;117.25;;;111.88;;
20657;SDS011;10488;50.846;4.078;2022-07-03T06:30:48;129.35;;;123.70;;
20657;SDS011;10488;50.846;4.078;2022-07-03T06:33:14;135.18;;;128.98;;
20657;SDS011;10488;50.846;4.078;2022-07-03T06:35:40;103.60;;;98.90;;
20657;SDS011;10488;50.846;4.078;2022-07-03T06:38:05;97.97;;;93.53;;
20657;SDS011;10488;50.846;4.078;2022-07-03T06:40:31;82.25;;;78.38;;
20657;SDS011;10488;50.846;4.078;2022-07-03T06:42:57;87.85;;;83.93;;
20657;SDS011;10488;50.846;4.078;2022-07-03T06:45:22;100.15;;;95.70;;
20657;SDS011;10488;50.846;4.078;2022-07-03T06:47:48;84.53;;;80.88;;
20657;SDS011;10488;50.846;4.078;2022-07-03T06:50:14;101.45;;;96.72;;
20657;SDS011;10488;50.846;4.078;2022-07-03T06:52:39;95.22;;;90.40;;
20657;SDS011;10488;50.846;4.078;2022-07-03T06:55:05;133.35;;;127.47;;
20657;SDS011;10488;50.846;4.078;2022-07-03T06:57:31;131.70;;;125.78;;
20657;SDS011;10488;50.846;4.078;2022-07-03T06:59:57;119.97;;;114.75;;
20657;SDS011;10488;50.846;4.078;2022-07-03T07:02:22;114.30;;;109.13;;
20657;SDS011;10488;50.846;4.078;2022-07-03T07:04:48;112.40;;;107.53;;
20657;SDS011;10488;50.846;4.078;2022-07-03T07:07:14;117.13;;;112.03;;
20657;SDS011;10488;50.846;4.078;2022-07-03T07:09:39;119.78;;;114.40;;
20657;SDS011;10488;50.846;4.078;2022-07-03T07:12:05;114.53;;;109.40;;
20657;SDS011;10488;50.846;4.078;2022-07-03T07:14:31;123.53;;;118.18;;
20657;SDS011;10488;50.846;4.078;2022-07-03T07:16:57;1999.90;;;999.90;;
20657;SDS011;10488;50.846;4.078;2022-07-03T07:19:22;122.90;;;117.30;;
20657;SDS011;10488;50.846;4.078;2022-07-03T07:21:48;1069.32;;;566.22;;
20657;SDS011;10488;50.846;4.078;2022-07-03T07:24:14;110.30;;;105.53;;
20657;SDS011;10488;50.846;4.078;2022-07-03T07:26:39;1070.93;;;567.83;;
20657;SDS011;10488;50.846;4.078;2022-07-03T07:29:05;1526.63;;;775.47;;
20657;SDS011;10488;50.846;4.078;2022-07-03T07:31:31;111.88;;;106.82;;
20657;SDS011;10488;50.846;4.078;2022-07-03T07:33:57;1044.88;;;542.92;;
20657;SDS011;10488;50.846;4.078;2022-07-03T07:36:22;79.35;;;76.03;;
20657;SDS011;10488;50.846;4.078;2022-07-03T07:38:48;79.38;;;75.85;;
20657;SDS011;10488;50.846;4.078;2022-07-03T07:41:14;81.03;;;77.40;;
20657;SDS011;10488;50.846;4.078;2022-07-03T07:43:40;71.57;;;68.32;;
20657;SDS011;10488;50.846;4.078;2022-07-03T07:46:05;89.07;;;84.97;;
20657;SDS011;10488;50.846;4.078;2022-07-03T07:48:33;65.75;;;62.72;;
20657;SDS011;10488;50.846;4.078;2022-07-03T07:51:00;74.25;;;71.05;;
20657;SDS011;10488;50.846;4.078;2022-07-03T07:53:26;110.97;;;105.97;;
20657;SDS011;10488;50.846;4.078;2022-07-03T07:55:52;66.82;;;63.83;;
20657;SDS011;10488;50.846;4.078;2022-07-03T07:58:18;555.70;;;303.33;;
20657;SDS011;10488;50.846;4.078;2022-07-03T08:00:43;83.38;;;79.80;;
20657;SDS011;10488;50.846;4.078;2022-07-03T08:03:29;69.10;;;66.15;;
20657;SDS011;10488;50.846;4.078;2022-07-03T08:06:13;70.13;;;66.93;;
20657;SDS011;10488;50.846;4.078;2022-07-03T08:08:39;1039.03;;;537.38;;
20657;SDS011;10488;50.846;4.078;2022-07-03T08:11:05;66.13;;;63.20;;
20657;SDS011;10488;50.846;4.078;2022-07-03T08:13:30;65.55;;;62.65;;
20657;SDS011;10488;50.846;4.078;2022-07-03T08:15:56;1035.68;;;534.20;;
20657;SDS011;10488;50.846;4.078;2022-07-03T08:18:22;67.97;;;65.03;;
20657;SDS011;10488;50.846;4.078;2022-07-03T08:20:48;71.85;;;68.65;;
20657;SDS011;10488;50.846;4.078;2022-07-03T08:23:14;1520.97;;;770.08;;
20657;SDS011;10488;50.846;4.078;2022-07-03T08:25:39;62.33;;;59.63;;
20657;SDS011;10488;50.846;4.078;2022-07-03T08:28:05;60.90;;;58.20;;
20657;SDS011;10488;50.846;4.078;2022-07-03T08:30:31;68.28;;;65.25;;
20657;SDS011;10488;50.846;4.078;2022-07-03T08:32:57;78.00;;;74.70;;
20657;SDS011;10488;50.846;4.078;2022-07-03T08:35:27;67.20;;;64.15;;
20657;SDS011;10488;50.846;4.078;2022-07-03T08:37:59;1521.18;;;770.25;;
20657;SDS011;10488;50.846;4.078;2022-07-03T08:40:24;71.80;;;68.68;;
20657;SDS011;10488;50.846;4.078;2022-07-03T08:42:57;71.93;;;68.78;;
20657;SDS011;10488;50.846;4.078;2022-07-03T08:45:26;95.07;;;90.97;;
20657;SDS011;10488;50.846;4.078;2022-07-03T08:47:56;95.50;;;91.40;;
20657;SDS011;10488;50.846;4.078;2022-07-03T08:50:23;115.90;;;110.90;;
20657;SDS011;10488;50.846;4.078;2022-07-03T08:52:49;128.20;;;122.68;;
20657;SDS011;10488;50.846;4.078;2022-07-03T08:55:15;96.88;;;92.68;;
20657;SDS011;10488;50.846;4.078;2022-07-03T08:57:42;1535.35;;;783.85;;
20657;SDS011;10488;50.846;4.078;2022-07-03T09:00:10;1052.07;;;549.75;;
20657;SDS011;10488;50.846;4.078;2022-07-03T09:02:39;121.22;;;115.90;;
20657;SDS011;10488;50.846;4.078;2022-07-03T09:05:09;1999.90;;;999.90;;
20657;SDS011;10488;50.846;4.078;2022-07-03T09:07:39;1999.90;;;999.90;;
20657;SDS011;10488;50.846;4.078;2022-07-03T09:10:07;1999.90;;;999.90;;
20657;SDS011;10488;50.846;4.078;2022-07-03T09:12:34;1999.90;;;999.90;;
20657;SDS011;10488;50.846;4.078;2022-07-03T09:15:01;1526.43;;;775.30;;
20657;SDS011;10488;50.846;4.078;2022-07-03T09:17:28;1999.90;;;999.90;;
20657;SDS011;10488;50.846;4.078;2022-07-03T09:19:54;1999.90;;;999.90;;
20657;SDS011;10488;50.846;4.078;2022-07-03T09:22:24;1999.90;;;999.90;;
20657;SDS011;10488;50.846;4.078;2022-07-03T09:25:04;1999.90;;;999.90;;
20657;SDS011;10488;50.846;4.078;2022-07-03T09:27:33;1999.90;;;999.90;;
20657;SDS011;10488;50.846;4.078;2022-07-03T09:30:03;1999.90;;;999.90;;
20657;SDS011;10488;50.846;4.078;2022-07-03T09:32:31;1999.90;;;999.90;;
20657;SDS011;10488;50.846;4.078;2022-07-03T09:35:22;1999.90;;;999.90;;
20657;SDS011;10488;50.846;4.078;2022-07-03T09:38:01;1999.90;;;999.90;;
20657;SDS011;10488;50.846;4.078;2022-07-03T09:40:46;1999.90;;;999.90;;
20657;SDS011;10488;50.846;4.078;2022-07-03T09:43:11;1999.90;;;999.90;;
20657;SDS011;10488;50.846;4.078;2022-07-03T09:48:24;1999.90;;;999.90;;
20657;SDS011;10488;50.846;4.078;2022-07-03T09:51:10;1999.90;;;999.90;;
20657;SDS011;10488;50.846;4.078;2022-07-03T09:53:53;1999.90;;;999.90;;
20657;SDS011;10488;50.846;4.078;2022-07-03T09:56:44;1999.90;;;999.90;;
20657;SDS011;10488;50.846;4.078;2022-07-03T09:59:10;85.78;;;82.20;;
20657;SDS011;10488;50.846;4.078;2022-07-03T10:01:38;97.70;;;93.53;;
20657;SDS011;10488;50.846;4.078;2022-07-03T10:04:09;91.65;;;87.82;;
20657;SDS011;10488;50.846;4.078;2022-07-03T10:06:48;103.30;;;98.70;;
20657;SDS011;10488;50.846;4.078;2022-07-03T10:09:17;100.30;;;96.00;;
20657;SDS011;10488;50.846;4.078;2022-07-03T10:11:48;1526.40;;;775.28;;
20657;SDS011;10488;50.846;4.078;2022-07-03T10:14:16;1045.53;;;543.63;;
20657;SDS011;10488;50.846;4.078;2022-07-03T10:16:44;1999.90;;;999.90;;
20657;SDS011;10488;50.846;4.078;2022-07-03T10:19:20;1999.90;;;999.90;;
20657;SDS011;10488;50.846;4.078;2022-07-03T10:21:51;1999.90;;;999.90;;
20657;SDS011;10488;50.846;4.078;2022-07-03T10:24:18;1999.90;;;999.90;;
20657;SDS011;10488;50.846;4.078;2022-07-03T10:26:45;1999.90;;;999.90;;
20657;SDS011;10488;50.846;4.078;2022-07-03T10:29:13;1999.90;;;999.90;;
20657;SDS011;10488;50.846;4.078;2022-07-03T10:31:41;1999.90;;;999.90;;
20657;SDS011;10488;50.846;4.078;2022-07-03T10:34:09;1999.90;;;999.90;;
20657;SDS011;10488;50.846;4.078;2022-07-03T10:36:36;1999.90;;;999.90;;
20657;SDS011;10488;50.846;4.078;2022-07-03T10:39:04;1999.90;;;999.90;;
20657;SDS011;10488;50.846;4.078;2022-07-03T10:41:35;1999.90;;;999.90;;
20657;SDS011;10488;50.846;4.078;2022-07-03T10:44:24;1999.90;;;999.90;;
20657;SDS011;10488;50.846;4.078;2022-07-03T10:50:11;1999.90;;;999.90;;
20657;SDS011;10488;50.846;4.078;2022-07-03T10:52:38;1999.90;;;999.90;;
20657;SDS011;10488;50.846;4.078;2022-07-03T10:55:05;1999.90;;;999.90;;
20657;SDS011;10488;50.846;4.078;2022-07-03T10:57:34;1999.90;;;999.90;;
20657;SDS011;10488;50.846;4.078;2022-07-03T11:00:03;1999.90;;;999.90;;
20657;SDS011;10488;50.846;4.078;2022-07-03T11:02:34;1999.90;;;999.90;;
20657;SDS011;10488;50.846;4.078;2022-07-03T11:25:51;1999.90;;;999.90;;
20657;SDS011;10488;50.846;4.078;2022-07-03T11:33:49;1999.90;;;999.90;;
20657;SDS011;10488;50.846;4.078;2022-07-03T11:36:28;1999.90;;;999.90;;
20657;SDS011;10488;50.846;4.078;2022-07-03T11:41:22;1999.90;;;999.90;;
20657;SDS011;10488;50.846;4.078;2022-07-03T11:43:56;1999.90;;;999.90;;
20657;SDS011;10488;50.846;4.078;2022-07-03T11:46:30;1999.90;;;999.90;;
20657;SDS011;10488;50.846;4.078;2022-07-03T11:49:07;1999.90;;;999.90;;
20657;SDS011;10488;50.846;4.078;2022-07-03T11:51:36;1999.90;;;999.90;;
20657;SDS011;10488;50.846;4.078;2022-07-03T11:54:03;1999.90;;;999.90;;
20657;SDS011;10488;50.846;4.078;2022-07-03T11:56:30;1999.90;;;999.90;;
20657;SDS011;10488;50.846;4.078;2022-07-03T11:58:57;1999.90;;;999.90;;
20657;SDS011;10488;50.846;4.078;2022-07-03T12:04:03;1999.90;;;999.90;;
20657;SDS011;10488;50.846;4.078;2022-07-03T12:06:46;1999.90;;;999.90;;
20657;SDS011;10488;50.846;4.078;2022-07-03T12:09:23;1999.90;;;999.90;;
20657;SDS011;10488;50.846;4.078;2022-07-03T12:12:02;1999.90;;;999.90;;
20657;SDS011;10488;50.846;4.078;2022-07-03T12:14:36;1999.90;;;999.90;;
20657;SDS011;10488;50.846;4.078;2022-07-03T12:17:12;1999.90;;;999.90;;
20657;SDS011;10488;50.846;4.078;2022-07-03T12:19:43;1999.90;;;999.90;;
20657;SDS011;10488;50.846;4.078;2022-07-03T12:27:22;1999.90;;;999.90;;
20657;SDS011;10488;50.846;4.078;2022-07-03T12:29:49;1999.90;;;999.90;;
20657;SDS011;10488;50.846;4.078;2022-07-03T12:32:15;1999.90;;;999.90;;
20657;SDS011;10488;50.846;4.078;2022-07-03T12:34:41;1999.90;;;999.90;;
20657;SDS011;10488;50.846;4.078;2022-07-03T12:37:07;1999.90;;;999.90;;
20657;SDS011;10488;50.846;4.078;2022-07-03T12:39:45;1999.90;;;999.90;;
20657;SDS011;10488;50.846;4.078;2022-07-03T12:42:19;1999.90;;;999.90;;
20657;SDS011;10488;50.846;4.078;2022-07-03T12:44:56;1999.90;;;999.90;;
20657;SDS011;10488;50.846;4.078;2022-07-03T12:47:23;1999.90;;;999.90;;
20657;SDS011;10488;50.846;4.078;2022-07-03T12:49:57;1999.90;;;999.90;;
20657;SDS011;10488;50.846;4.078;2022-07-03T12:52:25;1999.90;;;999.90;;
20657;SDS011;10488;50.846;4.078;2022-07-03T12:54:52;1999.90;;;999.90;;
20657;SDS011;10488;50.846;4.078;2022-07-03T12:57:19;1999.90;;;999.90;;
20657;SDS011;10488;50.846;4.078;2022-07-03T13:02:36;1999.90;;;999.90;;
20657;SDS011;10488;50.846;4.078;2022-07-03T13:05:22;1999.90;;;999.90;;
20657;SDS011;10488;50.846;4.078;2022-07-03T13:07:52;1999.90;;;999.90;;
20657;SDS011;10488;50.846;4.078;2022-07-03T13:10:20;1999.90;;;999.90;;
20657;SDS011;10488;50.846;4.078;2022-07-03T13:12:56;1999.90;;;999.90;;
20657;SDS011;10488;50.846;4.078;2022-07-03T13:15:29;1999.90;;;999.90;;
20657;SDS011;10488;50.846;4.078;2022-07-03T13:20:22;1999.90;;;999.90;;
20657;SDS011;10488;50.846;4.078;2022-07-03T13:22:48;1999.90;;;999.90;;
20657;SDS011;10488;50.846;4.078;2022-07-03T13:25:18;1999.90;;;999.90;;
20657;SDS011;10488;50.846;4.078;2022-07-03T13:27:44;1999.90;;;999.90;;
20657;SDS011;10488;50.846;4.078;2022-07-03T13:30:16;1999.90;;;999.90;;
20657;SDS011;10488;50.846;4.078;2022-07-03T13:32:43;1999.90;;;999.90;;
20657;SDS011;10488;50.846;4.078;2022-07-03T13:35:10;1999.90;;;999.90;;
20657;SDS011;10488;50.846;4.078;2022-07-03T13:37:36;1999.90;;;999.90;;
20657;SDS011;10488;50.846;4.078;2022-07-03T13:40:03;1999.90;;;999.90;;
20657;SDS011;10488;50.846;4.078;2022-07-03T13:42:29;1999.90;;;999.90;;
20657;SDS011;10488;50.846;4.078;2022-07-03T13:44:55;1999.90;;;999.90;;
20657;SDS011;10488;50.846;4.078;2022-07-03T13:47:21;1999.90;;;999.90;;
20657;SDS011;10488;50.846;4.078;2022-07-03T13:49:48;1999.90;;;999.90;;
20657;SDS011;10488;50.846;4.078;2022-07-03T13:52:14;1999.90;;;999.90;;
20657;SDS011;10488;50.846;4.078;2022-07-03T13:54:40;1999.90;;;999.90;;
20657;SDS011;10488;50.846;4.078;2022-07-03T13:57:05;1999.90;;;999.90;;
20657;SDS011;10488;50.846;4.078;2022-07-03T13:59:31;1999.90;;;999.90;;
20657;SDS011;10488;50.846;4.078;2022-07-03T14:01:57;1999.90;;;999.90;;
20657;SDS011;10488;50.846;4.078;2022-07-03T14:04:23;1999.90;;;999.90;;
20657;SDS011;10488;50.846;4.078;2022-07-03T14:06:49;1999.90;;;999.90;;
20657;SDS011;10488;50.846;4.078;2022-07-03T14:09:15;1999.90;;;999.90;;
20657;SDS011;10488;50.846;4.078;2022-07-03T14:11:41;1999.90;;;999.90;;
20657;SDS011;10488;50.846;4.078;2022-07-03T14:14:08;1999.90;;;999.90;;
20657;SDS011;10488;50.846;4.078;2022-07-03T14:16:34;1999.90;;;999.90;;
20657;SDS011;10488;50.846;4.078;2022-07-03T14:19:00;1999.90;;;999.90;;
20657;SDS011;10488;50.846;4.078;2022-07-03T14:21:28;1999.90;;;999.90;;
20657;SDS011;10488;50.846;4.078;2022-07-03T14:23:54;1999.90;;;999.90;;
20657;SDS011;10488;50.846;4.078;2022-07-03T14:26:20;1999.90;;;999.90;;
20657;SDS011;10488;50.846;4.078;2022-07-03T14:29:06;1999.90;;;999.90;;
20657;SDS011;10488;50.846;4.078;2022-07-03T14:31:52;1999.90;;;999.90;;
20657;SDS011;10488;50.846;4.078;2022-07-03T14:34:40;1999.90;;;999.90;;
20657;SDS011;10488;50.846;4.078;2022-07-03T14:37:06;1999.90;;;999.90;;
20657;SDS011;10488;50.846;4.078;2022-07-03T14:39:32;1999.90;;;999.90;;
20657;SDS011;10488;50.846;4.078;2022-07-03T14:41:58;1999.90;;;999.90;;
20657;SDS011;10488;50.846;4.078;2022-07-03T14:44:23;1999.90;;;999.90;;
20657;SDS011;10488;50.846;4.078;2022-07-03T14:46:51;1999.90;;;999.90;;
20657;SDS011;10488;50.846;4.078;2022-07-03T14:49:18;1999.90;;;999.90;;
20657;SDS011;10488;50.846;4.078;2022-07-03T14:51:44;1999.90;;;999.90;;
20657;SDS011;10488;50.846;4.078;2022-07-03T14:54:10;1999.90;;;999.90;;
20657;SDS011;10488;50.846;4.078;2022-07-03T14:56:39;1999.90;;;999.90;;
20657;SDS011;10488;50.846;4.078;2022-07-03T14:59:07;1999.90;;;999.90;;
20657;SDS011;10488;50.846;4.078;2022-07-03T15:01:34;1999.90;;;999.90;;
20657;SDS011;10488;50.846;4.078;2022-07-03T15:04:06;1999.90;;;999.90;;
20657;SDS011;10488;50.846;4.078;2022-07-03T15:06:59;1999.90;;;999.90;;
20657;SDS011;10488;50.846;4.078;2022-07-03T15:09:28;1999.90;;;999.90;;
20657;SDS011;10488;50.846;4.078;2022-07-03T15:11:55;1999.90;;;999.90;;
20657;SDS011;10488;50.846;4.078;2022-07-03T15:14:43;1999.90;;;999.90;;
20657;SDS011;10488;50.846;4.078;2022-07-03T15:17:11;1999.90;;;999.90;;
20657;SDS011;10488;50.846;4.078;2022-07-03T15:19:38;1999.90;;;999.90;;
20657;SDS011;10488;50.846;4.078;2022-07-03T15:22:06;1999.90;;;999.90;;